Time;durP1;ratioP1;P1;durP2;ratioP2;P2;SDS_P1;SDS_P2;PMS_P1;PMS_P2;Temp;Humidity;BMP_temperature;BMP_pressure;BME280_temperature;BME280_humidity;BME280_pressure;Samples;Min_cycle;Max_cycle;Signal;HPM_P1;HPM_P2
2022/08/09 00:00:38;;;;;;;15.75;6.13;;;14.30;99.90;;;;;;4934014;29;20063;-76
2022/08/09 00:03:04;;;;;;;13.32;5.88;;;14.30;99.90;;;;;;4932799;29;20098;-72
2022/08/09 00:05:30;;;;;;;12.43;6.28;;;14.20;99.90;;;;;;4944449;29;20146;-73
2022/08/09 00:07:56;;;;;;;14.75;6.32;;;14.20;99.90;;;;;;4938195;29;20382;-72
2022/08/09 00:10:22;;;;;;;14.55;6.43;;;14.20;99.90;;;;;;4938619;29;20075;-72
2022/08/09 00:12:48;;;;;;;14.25;6.65;;;14.20;99.90;;;;;;4956482;29;20102;-72
2022/08/09 00:15:26;;;;;;;16.38;6.00;;;14.10;99.90;;;;;;4955657;29;20089;-72
2022/08/09 00:17:51;;;;;;;13.73;6.07;;;14.10;99.90;;;;;;4939415;29;20086;-73
2022/08/09 00:20:17;;;;;;;11.15;6.07;;;14.10;99.90;;;;;;4907835;29;20073;-72
2022/08/09 00:22:54;;;;;;;14.73;6.47;;;14.10;99.90;;;;;;4955222;29;20055;-72
2022/08/09 00:25:20;;;;;;;;;;;14.10;99.90;;;;;;4923351;29;20063;-71
2022/08/09 00:27:52;;;;;;;14.03;6.20;;;14.00;99.90;;;;;;4923196;29;19930;-72
2022/08/09 00:30:21;;;;;;;14.98;7.30;;;14.00;99.90;;;;;;4956637;28;20086;-71
2022/08/09 00:32:47;;;;;;;12.90;6.60;;;14.00;99.90;;;;;;4923315;29;20094;-72
2022/08/09 00:35:13;;;;;;;12.02;6.15;;;14.00;99.90;;;;;;4956534;29;20051;-71
2022/08/09 00:37:39;;;;;;;12.82;6.70;;;13.90;99.90;;;;;;4925835;29;20121;-70
2022/08/09 00:40:06;;;;;;;13.77;6.57;;;13.90;99.90;;;;;;4918985;29;20052;-70
2022/08/09 00:42:31;;;;;;;;;;;13.90;99.90;;;;;;4921478;29;20047;-72
2022/08/09 00:45:04;;;;;;;13.07;6.57;;;13.90;99.90;;;;;;4904856;29;20312;-71
2022/08/09 00:47:31;;;;;;;13.88;6.90;;;13.90;99.90;;;;;;4931651;29;20128;-74
2022/08/09 00:49:57;;;;;;;15.30;6.22;;;13.80;99.90;;;;;;4933108;29;20186;-72
2022/08/09 00:52:26;;;;;;;15.00;6.45;;;13.80;99.90;;;;;;4926024;29;20050;-73
2022/08/09 00:54:52;;;;;;;17.90;7.18;;;13.80;99.90;;;;;;4953993;28;20492;-71
2022/08/09 00:57:19;;;;;;;15.15;6.93;;;13.80;99.90;;;;;;4908487;29;20058;-71
2022/08/09 00:59:45;;;;;;;15.68;6.95;;;13.80;99.90;;;;;;4938754;29;20090;-76
2022/08/09 01:02:13;;;;;;;13.00;6.65;;;13.80;99.90;;;;;;4940383;29;20079;-71
2022/08/09 01:04:52;;;;;;;16.30;6.70;;;13.80;99.90;;;;;;4938989;29;20059;-75
2022/08/09 01:07:52;;;;;;;18.15;7.68;;;13.80;99.90;;;;;;4955389;29;20496;-71
2022/08/09 01:10:40;;;;;;;14.43;7.10;;;13.80;99.90;;;;;;4939229;29;20053;-70
2022/08/09 01:13:32;;;;;;;14.52;7.10;;;13.70;99.90;;;;;;4958933;29;20057;-71
2022/08/09 01:16:01;;;;;;;12.95;6.95;;;13.70;99.90;;;;;;4941332;29;20050;-71
2022/08/09 01:18:30;;;;;;;17.85;7.25;;;13.70;99.90;;;;;;4942703;29;20082;-70
2022/08/09 01:21:24;;;;;;;16.83;6.68;;;13.70;99.90;;;;;;4944394;29;20073;-70
2022/08/09 01:24:01;;;;;;;18.17;7.18;;;13.70;99.90;;;;;;4949685;29;20050;-71
2022/08/09 01:26:46;;;;;;;15.68;7.72;;;13.70;99.90;;;;;;4946825;29;20154;-71
2022/08/09 01:29:14;;;;;;;17.15;7.30;;;13.60;99.90;;;;;;4961672;29;20086;-72
2022/08/09 01:31:43;;;;;;;15.63;7.10;;;13.60;99.90;;;;;;4930463;29;20051;-71
2022/08/09 01:34:13;;;;;;;17.08;8.80;;;13.70;99.90;;;;;;4926041;29;20119;-73
2022/08/09 01:36:41;;;;;;;16.80;7.25;;;13.60;99.90;;;;;;4937155;29;20049;-72
2022/08/09 01:39:06;;;;;;;19.67;7.47;;;13.60;99.90;;;;;;4905327;29;20464;-72
2022/08/09 01:41:35;;;;;;;16.92;7.35;;;13.60;99.90;;;;;;4923759;29;20071;-72
2022/08/09 01:44:03;;;;;;;17.35;7.38;;;13.60;99.90;;;;;;4954231;29;20380;-71
2022/08/09 01:46:33;;;;;;;18.92;6.95;;;13.60;99.90;;;;;;4938232;29;20109;-71
2022/08/09 01:49:14;;;;;;;17.42;6.45;;;13.60;99.90;;;;;;4953417;28;20086;-71
2022/08/09 01:51:48;;;;;;;17.00;7.68;;;13.50;99.90;;;;;;4953369;29;20488;-72
2022/08/09 01:54:15;;;;;;;15.55;6.78;;;13.60;99.90;;;;;;4951932;29;20575;-71
2022/08/09 01:56:47;;;;;;;17.48;7.63;;;13.50;99.90;;;;;;4936712;29;20555;-71
2022/08/09 01:59:19;;;;;;;16.35;7.07;;;13.50;99.90;;;;;;4953816;29;20066;-71
2022/08/09 02:01:50;;;;;;;20.38;7.68;;;13.50;99.90;;;;;;4938866;29;20130;-70
2022/08/09 02:04:18;;;;;;;16.80;7.90;;;13.50;99.90;;;;;;4935474;29;20149;-70
2022/08/09 02:09:33;;;;;;;19.25;7.63;;;13.40;99.90;;;;;;4949859;29;20523;-70
2022/08/09 02:12:06;;;;;;;17.85;7.05;;;13.40;99.90;;;;;;4950536;28;20396;-70
2022/08/09 02:14:34;;;;;;;12.85;6.68;;;13.40;99.90;;;;;;4933814;29;20066;-70
2022/08/09 02:17:01;;;;;;;17.15;7.68;;;13.40;99.90;;;;;;4935815;29;20062;-71
2022/08/09 02:19:27;;;;;;;14.45;7.00;;;13.40;99.90;;;;;;4936842;29;20068;-71
2022/08/09 02:21:57;;;;;;;17.15;7.53;;;13.30;99.90;;;;;;4922089;29;20050;-71
2022/08/09 02:24:28;;;;;;;20.75;7.35;;;13.30;99.90;;;;;;4952300;29;20051;-75
2022/08/09 02:26:59;;;;;;;17.80;7.57;;;13.30;99.90;;;;;;4953167;28;20055;-72
2022/08/09 02:29:30;;;;;;;19.40;7.15;;;13.30;99.90;;;;;;4936681;29;20058;-72
2022/08/09 02:32:00;;;;;;;17.83;7.63;;;13.20;99.90;;;;;;4936503;29;20047;-77
2022/08/09 02:34:33;;;;;;;19.58;7.47;;;13.20;99.90;;;;;;4954625;29;20051;-72
2022/08/09 02:37:04;;;;;;;17.92;7.32;;;13.20;99.90;;;;;;4936562;29;20057;-72
2022/08/09 02:39:42;;;;;;;17.10;7.22;;;13.20;99.90;;;;;;4952426;29;20059;-71
2022/08/09 02:42:15;;;;;;;18.27;7.53;;;13.20;99.90;;;;;;4949089;29;20044;-71
2022/08/09 02:44:52;;;;;;;17.90;7.93;;;13.10;99.90;;;;;;4952017;29;20058;-72
2022/08/09 02:47:22;;;;;;;18.50;7.93;;;13.10;99.90;;;;;;4952642;29;20070;-71
2022/08/09 02:50:05;;;;;;;18.50;7.60;;;13.20;99.90;;;;;;4951307;28;20097;-71
2022/08/09 02:52:46;;;;;;;17.65;7.40;;;13.20;99.90;;;;;;4938255;29;20109;-70
2022/08/09 02:55:13;;;;;;;16.23;7.35;;;13.10;99.90;;;;;;4946676;29;20154;-71
2022/08/09 02:57:40;;;;;;;15.00;6.88;;;13.10;99.90;;;;;;4919421;29;20139;-71
2022/08/09 03:00:11;;;;;;;17.65;6.72;;;13.20;99.90;;;;;;4917930;29;20059;-71
2022/08/09 03:02:39;;;;;;;20.23;7.78;;;13.10;99.90;;;;;;4936107;29;20040;-70
2022/08/09 03:05:08;;;;;;;19.38;6.90;;;13.10;99.90;;;;;;4936890;29;20061;-70
2022/08/09 03:07:35;;;;;;;17.33;7.10;;;13.10;99.90;;;;;;4935341;29;20047;-70
2022/08/09 03:10:03;;;;;;;15.07;6.55;;;13.10;99.90;;;;;;4951762;28;20076;-74
2022/08/09 03:12:30;;;;;;;18.15;7.25;;;13.10;99.90;;;;;;4937239;29;20433;-70
2022/08/09 03:14:57;;;;;;;18.63;7.57;;;13.10;99.90;;;;;;4920944;29;20050;-70
2022/08/09 03:17:23;;;;;;;18.85;7.32;;;13.10;99.90;;;;;;4950835;28;20043;-70
2022/08/09 03:19:50;;;;;;;17.55;7.35;;;13.00;99.90;;;;;;4936419;29;20436;-70
2022/08/09 03:22:19;;;;;;;19.67;7.25;;;13.10;99.90;;;;;;4952424;29;20054;-69
2022/08/09 03:24:45;;;;;;;21.35;7.13;;;13.10;99.90;;;;;;4903559;29;20105;-70
2022/08/09 03:27:12;;;;;;;19.58;7.45;;;13.00;99.90;;;;;;4953531;28;20051;-69
2022/08/09 03:29:39;;;;;;;14.50;7.07;;;13.10;99.90;;;;;;4947055;28;20051;-69
2022/08/09 03:32:06;;;;;;;16.85;7.25;;;13.00;99.90;;;;;;4917012;29;20052;-74
2022/08/09 03:34:32;;;;;;;15.43;7.18;;;13.00;99.90;;;;;;4917015;29;20047;-69
2022/08/09 03:36:58;;;;;;;18.40;7.20;;;13.00;99.90;;;;;;4917362;29;20051;-69
2022/08/09 03:39:26;;;;;;;22.00;7.90;;;13.00;99.90;;;;;;4918148;29;20293;-70
2022/08/09 03:41:53;;;;;;;18.98;7.40;;;12.90;99.90;;;;;;4931084;29;20400;-70
2022/08/09 03:44:20;;;;;;;;;;;12.90;99.90;;;;;;4930971;29;20051;-75
2022/08/09 03:46:48;;;;;;;;;;;12.90;99.90;;;;;;4948584;29;19922;-70
2022/08/09 03:49:15;;;;;;;19.40;6.68;;;12.80;99.90;;;;;;4940573;29;20017;-71
2022/08/09 03:51:43;;;;;;;19.15;7.22;;;12.80;99.90;;;;;;4933051;29;20047;-69
2022/08/09 03:54:10;;;;;;;21.00;7.28;;;12.80;99.90;;;;;;4958211;29;20551;-71
2022/08/09 03:56:36;;;;;;;23.52;8.35;;;12.80;99.90;;;;;;4923469;29;20050;-70
2022/08/09 03:59:02;;;;;;;18.50;7.55;;;12.80;99.90;;;;;;4955652;29;20142;-69
2022/08/09 04:01:29;;;;;;;18.65;7.28;;;12.90;99.90;;;;;;4923601;29;20642;-72
2022/08/09 04:03:56;;;;;;;17.77;7.35;;;12.90;99.90;;;;;;4922804;29;20048;-69
2022/08/09 04:06:24;;;;;;;23.20;8.00;;;12.80;99.90;;;;;;4955375;28;20102;-70
2022/08/09 04:08:50;;;;;;;20.63;7.53;;;12.80;99.90;;;;;;4924456;29;20051;-70
2022/08/09 04:11:16;;;;;;;23.50;8.07;;;12.80;99.90;;;;;;4918329;29;20466;-69
2022/08/09 04:13:42;;;;;;;20.10;7.72;;;12.80;99.90;;;;;;4936360;29;20107;-70
2022/08/09 04:16:08;;;;;;;19.45;7.18;;;12.80;99.90;;;;;;4939410;29;20575;-74
2022/08/09 04:18:34;;;;;;;22.02;7.18;;;12.80;99.90;;;;;;4938987;29;20055;-70
2022/08/09 04:20:59;;;;;;;18.90;7.15;;;12.80;99.90;;;;;;4939050;29;20054;-69
2022/08/09 04:23:25;;;;;;;20.20;7.28;;;12.80;99.90;;;;;;4939042;29;20059;-71
2022/08/09 04:25:52;;;;;;;20.08;7.85;;;12.80;99.90;;;;;;4921948;29;20055;-70
2022/08/09 04:28:20;;;;;;;20.05;7.30;;;12.80;99.90;;;;;;4922392;29;20057;-70
2022/08/09 04:30:46;;;;;;;21.42;8.07;;;12.80;99.90;;;;;;4922233;29;20373;-70
2022/08/09 04:33:11;;;;;;;16.83;7.00;;;12.80;99.90;;;;;;4922906;29;20102;-74
2022/08/09 04:35:39;;;;;;;20.83;7.55;;;12.80;99.90;;;;;;4954482;29;20047;-70
2022/08/09 04:38:05;;;;;;;19.92;8.23;;;12.90;99.90;;;;;;4955671;29;20083;-70
2022/08/09 04:40:49;;;;;;;17.08;7.38;;;12.90;99.90;;;;;;4937234;29;20051;-69
2022/08/09 04:43:16;;;;;;;21.67;7.72;;;12.90;99.90;;;;;;4949541;29;20062;-70
2022/08/09 04:45:42;;;;;;;17.98;7.40;;;12.90;99.90;;;;;;4935198;29;20126;-70
2022/08/09 04:48:08;;;;;;;20.23;7.07;;;13.00;99.90;;;;;;4935488;29;20446;-70
2022/08/09 04:50:34;;;;;;;18.38;7.47;;;13.00;99.90;;;;;;4934086;29;20062;-70
2022/08/09 04:53:00;;;;;;;20.25;7.28;;;13.00;99.90;;;;;;4939355;29;20055;-70
2022/08/09 04:55:26;;;;;;;20.65;6.60;;;12.90;99.90;;;;;;4950770;29;20047;-69
2022/08/09 04:57:51;;;;;;;16.20;6.78;;;13.00;99.90;;;;;;4939330;29;20054;-68
2022/08/09 05:00:18;;;;;;;16.75;7.45;;;13.00;99.90;;;;;;4938118;29;20484;-70
2022/08/09 05:02:44;;;;;;;16.73;6.53;;;13.10;99.90;;;;;;4954962;28;20050;-69
2022/08/09 05:05:10;;;;;;;14.02;7.00;;;13.10;99.90;;;;;;4953397;29;20059;-70
2022/08/09 05:07:36;;;;;;;19.73;7.07;;;13.10;99.90;;;;;;4955897;29;20062;-70
2022/08/09 05:10:02;;;;;;;17.05;7.10;;;13.10;99.90;;;;;;4953765;29;20097;-70
2022/08/09 05:12:29;;;;;;;14.77;6.32;;;13.10;99.90;;;;;;4954991;29;20171;-69
2022/08/09 05:14:54;;;;;;;13.20;6.50;;;13.20;99.90;;;;;;4954177;29;20039;-70
2022/08/09 05:17:20;;;;;;;14.88;6.40;;;13.20;99.90;;;;;;4954024;29;20047;-72
2022/08/09 05:19:46;;;;;;;17.07;6.50;;;13.20;99.90;;;;;;4937928;29;20043;-70
2022/08/09 05:22:12;;;;;;;15.80;7.40;;;13.30;99.90;;;;;;4938578;29;20105;-71
2022/08/09 05:24:39;;;;;;;13.47;5.80;;;13.30;99.90;;;;;;4952184;28;20594;-71
2022/08/09 05:27:05;;;;;;;12.95;6.38;;;13.30;99.90;;;;;;4936528;29;20054;-70
2022/08/09 05:29:32;;;;;;;15.40;6.65;;;13.30;99.90;;;;;;4950367;29;20356;-70
2022/08/09 05:32:00;;;;;;;15.75;6.47;;;13.40;99.90;;;;;;4953645;29;20129;-70
2022/08/09 05:34:28;;;;;;;17.17;6.95;;;13.40;99.90;;;;;;4952273;29;20472;-70
2022/08/09 05:36:57;;;;;;;14.40;6.75;;;13.50;99.90;;;;;;4938107;29;20106;-71
2022/08/09 05:39:24;;;;;;;14.02;7.13;;;13.60;99.90;;;;;;4936425;29;20512;-76
2022/08/09 05:41:50;;;;;;;14.63;6.55;;;13.70;99.90;;;;;;4937010;29;20043;-71
2022/08/09 05:44:16;;;;;;;13.65;6.50;;;13.70;99.90;;;;;;4938191;29;20058;-70
2022/08/09 05:46:42;;;;;;;14.20;6.68;;;13.80;99.90;;;;;;4953755;28;20043;-71
2022/08/09 05:49:08;;;;;;;14.02;6.25;;;13.90;99.90;;;;;;4938148;29;20456;-71
2022/08/09 05:51:33;;;;;;;14.52;6.22;;;14.00;99.90;;;;;;4937414;29;20397;-72
2022/08/09 05:53:59;;;;;;;15.32;6.20;;;14.00;99.90;;;;;;4938689;29;20055;-70
2022/08/09 05:56:26;;;;;;;14.68;6.00;;;14.10;99.90;;;;;;4936264;29;20059;-70
2022/08/09 05:58:56;;;;;;;13.60;5.85;;;14.20;99.90;;;;;;4937641;29;20149;-71
2022/08/09 06:01:27;;;;;;;14.85;6.40;;;14.30;99.90;;;;;;4952375;28;20456;-72
2022/08/09 06:03:53;;;;;;;11.65;6.03;;;14.50;99.90;;;;;;4938007;29;20102;-71
2022/08/09 06:06:19;;;;;;;12.23;6.00;;;14.60;99.90;;;;;;4937683;29;20051;-70
2022/08/09 06:08:45;;;;;;;14.20;5.90;;;14.60;99.90;;;;;;4954511;28;20499;-72
2022/08/09 06:11:11;;;;;;;13.85;6.15;;;14.70;99.90;;;;;;4937238;28;20188;-71
2022/08/09 06:13:37;;;;;;;12.65;6.05;;;14.80;99.90;;;;;;4902327;29;20481;-72
2022/08/09 06:16:03;;;;;;;9.98;5.18;;;14.90;99.90;;;;;;4918524;29;20047;-71
2022/08/09 06:18:29;;;;;;;14.27;6.30;;;14.90;99.90;;;;;;4934285;29;20152;-72
2022/08/09 06:20:55;;;;;;;15.98;5.78;;;15.10;99.90;;;;;;4933887;29;20396;-71
2022/08/09 06:23:22;;;;;;;13.10;6.27;;;15.20;99.90;;;;;;4918516;29;20112;-70
2022/08/09 06:25:55;;;;;;;14.10;5.70;;;15.20;99.90;;;;;;4885884;29;20055;-71
2022/08/09 06:28:22;;;;;;;13.40;5.70;;;15.30;99.90;;;;;;4919178;29;20059;-71
2022/08/09 06:30:48;;;;;;;12.70;5.50;;;15.30;99.90;;;;;;4917893;29;20055;-71
2022/08/09 06:33:14;;;;;;;12.77;4.90;;;15.50;99.90;;;;;;4935675;29;20044;-71
2022/08/09 06:35:39;;;;;;;12.63;5.47;;;15.50;99.90;;;;;;4934180;29;20158;-71
2022/08/09 06:38:11;;;;;;;13.52;5.10;;;15.60;99.90;;;;;;4904585;29;20090;-70
2022/08/09 06:40:37;;;;;;;9.38;4.85;;;15.60;99.90;;;;;;4940296;29;20075;-72
2022/08/09 06:43:03;;;;;;;10.52;5.22;;;15.70;99.90;;;;;;4942104;29;20063;-72
2022/08/09 06:45:30;;;;;;;14.07;5.25;;;15.80;99.90;;;;;;4960071;28;20132;-72
2022/08/09 06:48:00;;;;;;;11.95;4.68;;;15.90;99.90;;;;;;4960861;29;20042;-72
2022/08/09 06:50:28;;;;;;;14.65;5.38;;;15.90;99.90;;;;;;4938480;29;20051;-72
2022/08/09 06:52:53;;;;;;;12.77;5.47;;;16.20;99.90;;;;;;4953358;29;20047;-71
2022/08/09 06:55:30;;;;;;;11.60;4.90;;;16.20;99.90;;;;;;4921570;29;20149;-69
2022/08/09 06:57:58;;;;;;;13.30;4.78;;;16.30;99.90;;;;;;4953527;29;20202;-71
2022/08/09 07:00:24;;;;;;;10.57;4.78;;;16.40;99.90;;;;;;4921408;29;20043;-71
2022/08/09 07:03:18;;;;;;;11.45;4.88;;;16.50;99.90;;;;;;4923970;29;20046;-71
2022/08/09 07:05:43;;;;;;;11.07;5.38;;;16.60;99.90;;;;;;4937497;29;20054;-71
2022/08/09 07:08:09;;;;;;;10.63;4.47;;;16.70;99.90;;;;;;4921385;29;20104;-71
2022/08/09 07:10:35;;;;;;;11.75;4.82;;;16.90;99.90;;;;;;4919585;29;20078;-70
2022/08/09 07:13:01;;;;;;;11.07;4.30;;;16.90;99.90;;;;;;4952841;28;20062;-71
2022/08/09 07:15:28;;;;;;;9.15;4.85;;;17.00;99.90;;;;;;4936426;29;20142;-74
2022/08/09 07:17:54;;;;;;;14.02;3.72;;;17.00;99.90;;;;;;4937031;29;20074;-71
2022/08/09 07:20:20;;;;;;;9.80;3.50;;;17.10;99.90;;;;;;4936256;29;20044;-70
2022/08/09 07:22:45;;;;;;;8.77;3.58;;;17.20;99.90;;;;;;4936231;29;20086;-70
2022/08/09 07:25:11;;;;;;;7.80;2.95;;;17.30;99.90;;;;;;4919465;29;20098;-71
2022/08/09 07:27:38;;;;;;;7.38;3.08;;;17.50;99.90;;;;;;4936880;29;20115;-71
2022/08/09 07:30:04;;;;;;;5.43;2.27;;;17.60;99.90;;;;;;4936336;29;20047;-69
2022/08/09 07:32:30;;;;;;;7.82;2.47;;;17.70;99.90;;;;;;4920343;29;20302;-70
2022/08/09 07:34:56;;;;;;;5.70;1.88;;;17.80;99.90;;;;;;4935975;29;20062;-68
2022/08/09 07:37:22;;;;;;;5.57;2.30;;;17.90;99.90;;;;;;4936955;29;20047;-69
2022/08/09 07:39:49;;;;;;;3.63;1.95;;;17.90;99.90;;;;;;4938707;29;20043;-71
2022/08/09 07:42:15;;;;;;;;;;;18.10;99.90;;;;;;4952992;29;20047;-71
2022/08/09 07:44:41;;;;;;;6.87;1.90;;;18.10;99.90;;;;;;4920825;29;20014;-70
2022/08/09 07:47:08;;;;;;;5.50;1.30;;;18.00;99.90;;;;;;4937726;29;20373;-71
2022/08/09 07:49:34;;;;;;;5.53;1.67;;;18.10;99.90;;;;;;4938982;29;20120;-70
2022/08/09 07:51:59;;;;;;;5.03;1.30;;;18.20;99.90;;;;;;4940094;29;20089;-70
2022/08/09 07:54:29;;;;;;;6.33;1.40;;;18.20;99.90;;;;;;4955496;29;20476;-72
2022/08/09 07:56:56;;;;;;;4.60;0.90;;;18.30;99.90;;;;;;4953724;29;20051;-74
2022/08/09 07:59:23;;;;;;;7.27;1.00;;;18.40;99.90;;;;;;4953950;29;20051;-72
2022/08/09 08:01:49;;;;;;;3.50;1.00;;;18.50;99.90;;;;;;4925190;29;20048;-71
2022/08/09 08:04:22;;;;;;;3.33;1.00;;;18.50;99.90;;;;;;4955488;29;20459;-70
2022/08/09 08:06:48;;;;;;;1.90;0.70;;;18.60;99.90;;;;;;4936521;29;20055;-72
2022/08/09 08:09:16;;;;;;;3.75;0.90;;;18.80;99.90;;;;;;4953773;29;20145;-71
2022/08/09 08:11:42;;;;;;;3.78;0.65;;;18.90;99.90;;;;;;4932542;29;20058;-73
2022/08/09 08:14:08;;;;;;;5.55;1.02;;;18.90;99.90;;;;;;4937092;29;20552;-71
2022/08/09 08:16:35;;;;;;;5.00;1.08;;;18.90;99.90;;;;;;4934360;29;20142;-74
2022/08/09 08:19:07;;;;;;;5.85;0.82;;;18.90;99.90;;;;;;4918782;29;20464;-71
2022/08/09 08:21:33;;;;;;;3.83;0.85;;;19.00;99.90;;;;;;4903835;29;20055;-73
2022/08/09 08:23:58;;;;;;;5.30;0.83;;;19.10;99.90;;;;;;4917872;29;20492;-73
2022/08/09 08:26:24;;;;;;;4.22;0.70;;;19.10;99.90;;;;;;4938630;29;20060;-72
2022/08/09 08:28:50;;;;;;;5.10;0.93;;;19.10;99.90;;;;;;4939784;29;20047;-71
2022/08/09 08:31:20;;;;;;;3.42;0.70;;;19.10;99.90;;;;;;4937472;29;20047;-71
2022/08/09 08:33:45;;;;;;;6.22;0.88;;;19.30;99.90;;;;;;4920673;29;20078;-72
2022/08/09 08:36:11;;;;;;;4.00;0.90;;;19.30;99.90;;;;;;4937104;29;20052;-71
2022/08/09 08:38:37;;;;;;;4.03;0.70;;;19.30;99.90;;;;;;4936399;29;20071;-75
2022/08/09 08:41:03;;;;;;;3.60;0.60;;;19.50;99.90;;;;;;4935139;29;20059;-74
2022/08/09 08:43:29;;;;;;;3.03;0.65;;;19.50;99.90;;;;;;4935997;29;20055;-72
2022/08/09 08:46:02;;;;;;;2.38;0.80;;;19.40;99.90;;;;;;4935983;29;20077;-74
2022/08/09 08:48:28;;;;;;;4.13;0.80;;;19.60;99.90;;;;;;4936300;29;20481;-70
2022/08/09 08:50:54;;;;;;;1.77;0.60;;;19.60;99.90;;;;;;4936154;29;20063;-71
2022/08/09 08:53:21;;;;;;;1.60;0.60;;;19.70;99.90;;;;;;4920112;29;20463;-71
2022/08/09 08:55:47;;;;;;;2.80;0.70;;;19.70;99.90;;;;;;4918346;29;20044;-73
2022/08/09 08:58:13;;;;;;;3.40;0.70;;;19.80;99.90;;;;;;4920264;29;20058;-73
2022/08/09 09:00:57;;;;;;;;;;;19.80;99.90;;;;;;4936324;29;20294;-76
2022/08/09 09:03:31;;;;;;;3.75;0.88;;;20.00;99.90;;;;;;4907222;29;20295;-73
2022/08/09 09:06:06;;;;;;;4.03;0.90;;;20.10;99.90;;;;;;4922501;29;20165;-72
2022/08/09 09:08:40;;;;;;;5.50;0.80;;;20.20;99.90;;;;;;4924386;29;20047;-72
2022/08/09 09:11:06;;;;;;;3.22;0.70;;;20.40;99.90;;;;;;4938291;29;20051;-72
2022/08/09 09:13:37;;;;;;;2.90;0.73;;;20.60;99.90;;;;;;4938748;29;20047;-72
2022/08/09 09:16:03;;;;;;;4.30;0.75;;;20.80;99.90;;;;;;4935722;29;20632;-72
2022/08/09 09:18:31;;;;;;;2.07;0.80;;;20.80;99.90;;;;;;4920739;29;20142;-74
2022/08/09 09:20:57;;;;;;;2.92;0.60;;;20.80;99.90;;;;;;4923989;29;20098;-72
2022/08/09 09:23:43;;;;;;;4.88;0.80;;;21.00;99.90;;;;;;4938481;29;20082;-73
2022/08/09 09:26:10;;;;;;;5.97;0.90;;;21.00;99.90;;;;;;4918416;29;20090;-72
2022/08/09 09:28:36;;;;;;;3.88;0.80;;;20.90;99.90;;;;;;4919839;29;20059;-71
2022/08/09 09:31:12;;;;;;;2.50;0.80;;;20.70;99.90;;;;;;4920327;29;20130;-70
2022/08/09 09:33:44;;;;;;;2.83;0.75;;;20.60;99.90;;;;;;4935231;29;20197;-77
2022/08/09 09:36:16;;;;;;;3.35;0.70;;;20.40;99.90;;;;;;4935744;29;20463;-72
2022/08/09 09:38:55;;;;;;;3.10;0.60;;;20.50;99.90;;;;;;4936090;29;20057;-71
2022/08/09 09:41:25;;;;;;;3.08;0.60;;;20.50;99.90;;;;;;4935836;29;20095;-73
2022/08/09 09:43:55;;;;;;;3.55;0.55;;;20.60;99.90;;;;;;4939278;29;20506;-74
2022/08/09 09:46:38;;;;;;;3.10;0.50;;;20.40;99.90;;;;;;4943652;29;20048;-74
2022/08/09 09:49:09;;;;;;;2.03;0.57;;;20.50;99.90;;;;;;4937131;29;20183;-72
2022/08/09 09:51:37;;;;;;;2.75;0.50;;;20.70;99.90;;;;;;4920185;29;20369;-73
2022/08/09 09:54:06;;;;;;;1.30;0.40;;;20.90;99.90;;;;;;4935742;29;20055;-71
2022/08/09 09:56:42;;;;;;;7.22;0.55;;;21.00;99.90;;;;;;4934574;29;20047;-73
2022/08/09 09:59:10;;;;;;;1.88;0.60;;;21.20;99.90;;;;;;4922105;29;20393;-71
2022/08/09 10:01:41;;;;;;;2.10;0.50;;;21.30;99.90;;;;;;4919001;29;20051;-71
2022/08/09 10:04:15;;;;;;;3.38;0.50;;;21.40;99.90;;;;;;4920249;29;20059;-72
2022/08/09 10:06:43;;;;;;;1.83;0.45;;;21.30;99.90;;;;;;4935086;29;20130;-72
2022/08/09 10:09:11;;;;;;;3.35;0.50;;;21.30;99.90;;;;;;4934872;29;20075;-73
2022/08/09 10:11:37;;;;;;;1.70;0.45;;;21.30;99.90;;;;;;4920912;29;20061;-73
2022/08/09 10:14:04;;;;;;;2.00;0.43;;;21.50;99.90;;;;;;4938118;29;20047;-68
2022/08/09 10:16:35;;;;;;;0.73;0.40;;;21.30;99.90;;;;;;4955282;29;20085;-73
2022/08/09 10:19:06;;;;;;;1.33;0.40;;;21.50;99.90;;;;;;4954292;29;20110;-72
2022/08/09 10:21:33;;;;;;;1.80;0.45;;;21.60;99.90;;;;;;4938273;29;20055;-72
2022/08/09 10:24:02;;;;;;;3.00;0.50;;;21.60;99.90;;;;;;4937219;29;20054;-70
2022/08/09 10:26:28;;;;;;;2.28;0.40;;;21.60;99.90;;;;;;4937558;29;20131;-71
2022/08/09 10:28:55;;;;;;;2.85;0.40;;;21.60;99.90;;;;;;4954534;29;20183;-72
2022/08/09 10:31:22;;;;;;;2.47;0.40;;;21.70;99.90;;;;;;4952857;29;20050;-70
2022/08/09 10:33:48;;;;;;;1.70;0.40;;;21.70;99.90;;;;;;4954671;29;20050;-71
2022/08/09 10:36:15;;;;;;;3.58;0.60;;;21.80;99.90;;;;;;4954390;28;20050;-72
2022/08/09 10:38:45;;;;;;;1.67;0.38;;;21.90;99.90;;;;;;4955482;29;20512;-71
2022/08/09 10:41:14;;;;;;;2.97;0.50;;;21.60;99.90;;;;;;4926703;29;20048;-73
2022/08/09 10:43:46;;;;;;;2.72;0.40;;;21.60;99.90;;;;;;4934139;29;20047;-73
2022/08/09 10:46:58;;;;;;;2.00;0.40;;;21.60;99.90;;;;;;4934458;29;20492;-70
2022/08/09 10:49:44;;;;;;;1.48;0.30;;;21.90;99.90;;;;;;4890122;29;20060;-71
2022/08/09 10:52:50;;;;;;;2.35;0.30;;;22.20;99.90;;;;;;4933796;29;20127;-72
2022/08/09 10:55:39;;;;;;;1.75;0.40;;;22.30;99.90;;;;;;4918061;29;20134;-72
2022/08/09 10:58:05;;;;;;;0.98;0.38;;;22.30;99.90;;;;;;4936342;29;20251;-71
2022/08/09 11:00:38;;;;;;;3.70;0.43;;;22.40;99.90;;;;;;4936947;29;20047;-74
2022/08/09 11:03:24;;;;;;;3.33;0.30;;;22.40;99.90;;;;;;4954055;29;20044;-74
2022/08/09 11:06:17;;;;;;;3.70;0.40;;;22.60;99.90;;;;;;4937399;29;20126;-73
2022/08/09 11:08:45;;;;;;;1.92;0.45;;;22.60;99.90;;;;;;4935562;29;20114;-72
2022/08/09 11:11:10;;;;;;;1.13;0.30;;;22.70;99.90;;;;;;4933655;29;20066;-73
2022/08/09 11:13:39;;;;;;;1.47;0.30;;;22.80;99.90;;;;;;4936397;29;20043;-71
2022/08/09 11:16:31;;;;;;;0.93;0.30;;;22.90;99.90;;;;;;4918924;29;20070;-75
2022/08/09 11:19:07;;;;;;;2.47;0.40;;;23.10;99.90;;;;;;4935009;29;20051;-74
2022/08/09 11:21:52;;;;;;;3.72;0.40;;;23.00;99.90;;;;;;4918375;29;20087;-73
2022/08/09 11:24:20;;;;;;;2.17;0.40;;;23.10;99.60;;;;;;4935443;29;20394;-77
2022/08/09 11:26:49;;;;;;;3.13;0.30;;;22.80;99.00;;;;;;4934440;29;20060;-71
2022/08/09 11:29:54;;;;;;;0.75;0.40;;;23.00;99.90;;;;;;4932982;29;20153;-74
2022/08/09 11:32:39;;;;;;;0.85;0.35;;;23.10;99.90;;;;;;4933233;29;20048;-71
2022/08/09 11:35:14;;;;;;;1.05;0.30;;;22.80;98.60;;;;;;4932712;29;20138;-73
2022/08/09 11:37:41;;;;;;;1.27;0.60;;;22.90;99.70;;;;;;4934919;29;20083;-73
2022/08/09 11:40:10;;;;;;;1.90;0.70;;;23.10;99.90;;;;;;4932045;29;20060;-75
2022/08/09 11:42:59;;;;;;;2.05;0.60;;;23.20;99.30;;;;;;4901839;29;20058;-72
2022/08/09 11:45:39;;;;;;;1.80;0.50;;;23.10;98.30;;;;;;4932956;29;20099;-73
2022/08/09 11:48:29;;;;;;;0.90;0.30;;;23.10;99.30;;;;;;4932968;29;20594;-73
2022/08/09 11:51:04;;;;;;;2.50;0.40;;;23.20;99.50;;;;;;4934043;29;20060;-74
2022/08/09 11:54:08;;;;;;;1.00;0.40;;;23.30;97.80;;;;;;4934745;29;20198;-72
2022/08/09 11:56:34;;;;;;;2.80;0.30;;;23.40;98.80;;;;;;4935726;29;20984;-72
2022/08/09 11:59:00;;;;;;;1.63;0.40;;;23.50;97.10;;;;;;4935734;29;20048;-73
2022/08/09 12:01:41;;;;;;;1.50;0.40;;;23.40;97.20;;;;;;4938354;29;20505;-73
2022/08/09 12:04:10;;;;;;;1.30;0.50;;;23.50;97.90;;;;;;4906572;29;20083;-73
2022/08/09 12:06:52;;;;;;;2.88;0.50;;;23.60;97.50;;;;;;4953808;29;20071;-72
2022/08/09 12:09:26;;;;;;;1.35;0.40;;;23.50;96.50;;;;;;4940827;29;20128;-75
2022/08/09 12:12:00;;;;;;;2.60;0.55;;;23.60;96.20;;;;;;4941179;29;20059;-72
2022/08/09 12:14:30;;;;;;;2.38;0.47;;;23.60;95.50;;;;;;4928898;29;20051;-73
2022/08/09 12:16:57;;;;;;;1.60;0.40;;;23.60;96.20;;;;;;4942587;29;20047;-74
2022/08/09 12:19:30;;;;;;;1.02;0.50;;;23.70;96.50;;;;;;4925980;29;20085;-72
2022/08/09 12:22:02;;;;;;;2.15;0.50;;;23.80;95.50;;;;;;4959764;28;20102;-72
2022/08/09 12:24:28;;;;;;;1.05;0.40;;;23.70;96.00;;;;;;4955335;29;20049;-71
2022/08/09 12:26:55;;;;;;;2.75;0.50;;;23.60;96.00;;;;;;4959672;28;20117;-73
2022/08/09 12:29:27;;;;;;;1.67;0.60;;;23.60;95.70;;;;;;4957084;29;20050;-71
2022/08/09 12:32:07;;;;;;;4.15;0.52;;;23.70;95.10;;;;;;4942215;29;20051;-72
2022/08/09 12:34:41;;;;;;;1.45;0.50;;;23.80;95.40;;;;;;4956957;29;20043;-71
2022/08/09 12:37:10;;;;;;;3.08;0.50;;;23.70;94.40;;;;;;4957371;29;20058;-77
2022/08/09 12:39:37;;;;;;;3.50;0.50;;;23.80;95.50;;;;;;4941423;29;20106;-71
2022/08/09 12:42:20;;;;;;;3.38;0.50;;;23.80;94.00;;;;;;4959940;29;20043;-73
2022/08/09 12:44:46;;;;;;;3.83;0.60;;;23.90;95.10;;;;;;4970088;29;20047;-71
2022/08/09 12:47:16;;;;;;;3.00;0.40;;;24.00;93.40;;;;;;4964801;29;20074;-73
2022/08/09 12:49:42;;;;;;;2.08;0.40;;;24.10;92.40;;;;;;4944446;29;20058;-72
2022/08/09 12:52:09;;;;;;;1.92;0.60;;;23.90;92.00;;;;;;4943111;29;20043;-72
2022/08/09 12:54:53;;;;;;;1.95;0.38;;;24.00;91.60;;;;;;4958189;29;20086;-71
2022/08/09 12:57:39;;;;;;;2.53;0.50;;;24.20;92.80;;;;;;4961666;29;20047;-72
2022/08/09 13:00:14;;;;;;;;;;;24.10;92.50;;;;;;4941551;29;20074;-74